Time;durP1;ratioP1;P1;durP2;ratioP2;P2;SDS_P1;SDS_P2;PMS_P1;PMS_P2;Temp;Humidity;BMP_temperature;BMP_pressure;BME280_temperature;BME280_humidity;BME280_pressure;Samples;Min_cycle;Max_cycle;Signal;HPM_P1;HPM_P2
2021/12/21 00:02:05;;;;;;;;;;;;;;;4.73;69.39;100963.41;5050576;28;19932;-60
2021/12/21 00:04:31;;;;;;;;;;;;;;;4.72;69.46;100964.31;5050411;28;20388;-60
2021/12/21 00:06:58;;;;;;;;;;;;;;;4.71;69.28;100954.72;5050416;28;19925;-61
2021/12/21 00:09:24;;;;;;;;;;;;;;;4.69;69.42;100961.72;5050220;28;19921;-62
2021/12/21 00:11:51;;;;;;;;;;;;;;;4.68;69.37;100958.25;5050335;28;19928;-62
2021/12/21 00:17:02;;;;;;;;;;;;;;;4.65;69.17;100965.25;5050384;28;19925;-61
2021/12/21 00:22:18;;;;;;;;;;;;;;;4.60;69.14;100956.63;5050440;28;19943;-61
2021/12/21 00:24:47;;;;;;;;;;;;;;;4.57;68.96;100953.16;5050348;28;19947;-60
2021/12/21 00:27:15;;;;;;;;;;;;;;;4.56;69.07;100958.41;5050281;28;19925;-62
2021/12/21 00:29:42;;;;;;;;;;;;;;;4.54;69.17;100955.84;5048696;28;20380;-62
2021/12/21 00:32:09;;;;;;;;;;;;;;;4.53;69.17;100953.25;5050112;28;19983;-60
2021/12/21 00:34:37;;;;;;;;;;;;;;;4.52;69.32;100959.34;5050424;28;19947;-60
2021/12/21 00:37:04;;;;;;;;;;;;;;;4.49;69.44;100957.59;5050216;28;20384;-60
2021/12/21 00:39:31;;;;;;;;;;;;;;;4.48;69.33;100958.50;5048669;28;19998;-60
2021/12/21 00:41:57;;;;;;;;;;;;;;;4.47;69.27;100956.78;5050100;28;19924;-62
2021/12/21 00:44:24;;;;;;;;;;;;;;;4.45;69.40;100948.09;5049946;28;19921;-61
2021/12/21 00:46:50;;;;;;;;;;;;;;;4.44;69.48;100949.00;5050239;28;19936;-61
2021/12/21 00:49:17;;;;;;;;;;;;;;;4.43;69.25;100950.75;5049740;28;20603;-59
2021/12/21 00:51:44;;;;;;;;;;;;;;;4.43;69.35;100944.66;5053636;28;20399;-62
2021/12/21 00:54:12;;;;;;;;;;;;;;;4.41;69.63;100942.06;5053443;28;19929;-61
2021/12/21 00:56:38;;;;;;;;;;;;;;;4.40;69.55;100937.75;5053566;28;20344;-61
2021/12/21 00:59:05;;;;;;;;;;;;;;;4.40;69.31;100936.88;5053546;28;19921;-60
2021/12/21 01:01:32;;;;;;;;;;;;;;;4.39;69.42;100937.75;5053469;28;19924;-60
2021/12/21 01:04:01;;;;;;;;;;;;;;;4.37;69.52;100927.34;5053515;28;19928;-60
2021/12/21 01:06:40;;;;;;;;;;;;;;;4.35;69.42;100929.13;5052111;28;19921;-60
2021/12/21 01:09:23;;;;;;;;;;;;;;;4.35;69.27;100943.88;5053193;28;19925;-61
2021/12/21 01:11:54;;;;;;;;;;;;;;;4.32;69.25;100930.88;5053304;28;20294;-62
2021/12/21 01:17:14;;;;;;;;;;;;;;;4.29;69.42;100927.44;5053349;28;19943;-63
2021/12/21 01:19:45;;;;;;;;;;;;;;;4.29;69.34;100935.28;5052776;28;20015;-61
2021/12/21 01:22:20;;;;;;;;;;;;;;;4.28;69.35;100930.06;5052101;28;19928;-61
2021/12/21 01:27:39;;;;;;;;;;;;;;;4.25;69.27;100930.09;5053291;28;19928;-61
2021/12/21 01:30:18;;;;;;;;;;;;;;;4.24;69.29;100936.19;5052860;28;19920;-61
2021/12/21 01:35:42;;;;;;;;;;;;;;;4.20;69.36;100940.59;5044438;28;20335;-61
2021/12/21 01:38:36;;;;;;;;;;;;;;;4.19;69.35;100930.19;5053021;28;19967;-61
2021/12/21 01:41:20;;;;;;;;;;;;;;;4.17;69.34;100933.66;5052626;28;19920;-62
2021/12/21 01:44:00;;;;;;;;;;;;;;;4.15;69.45;100934.56;5052512;28;19921;-63
2021/12/21 01:51:57;;;;;;;;;;;;;;;4.07;69.01;100934.63;5052499;28;20343;-62
2021/12/21 01:54:24;;;;;;;;;;;;;;;4.05;69.41;100939.00;5052699;28;19965;-62
2021/12/21 01:56:50;;;;;;;;;;;;;;;4.03;69.23;100936.41;5052551;28;19921;-62
2021/12/21 01:59:16;;;;;;;;;;;;;;;4.02;69.27;100937.31;5052084;28;20348;-62
2021/12/21 02:01:43;;;;;;;;;;;;;;;4.01;69.13;100932.09;5051674;28;20363;-63
2021/12/21 02:04:14;;;;;;;;;;;;;;;3.98;68.98;100930.41;5052408;28;19936;-63
2021/12/21 02:06:41;;;;;;;;;;;;;;;3.96;69.26;100932.16;5051318;28;19925;-61
2021/12/21 02:09:08;;;;;;;;;;;;;;;3.94;69.07;100920.00;5050911;28;19925;-61
2021/12/21 02:11:34;;;;;;;;;;;;;;;3.91;69.17;100918.31;5052161;28;20331;-61
2021/12/21 02:14:01;;;;;;;;;;;;;;;3.90;69.02;100919.19;5052126;28;19932;-61
2021/12/21 02:16:39;;;;;;;;;;;;;;;3.88;69.24;100919.22;5052413;28;19979;-63
2021/12/21 02:19:20;;;;;;;;;;;;;;;3.86;69.46;100910.56;5052092;28;19924;-63
2021/12/21 02:22:11;;;;;;;;;;;;;;;3.87;69.48;100921.81;5052321;28;19974;-61
2021/12/21 02:24:47;;;;;;;;;;;;;;;3.85;69.26;100913.19;5052027;28;19947;-64
2021/12/21 02:27:29;;;;;;;;;;;;;;;3.85;69.24;100913.19;5051872;28;20327;-63
2021/12/21 02:29:55;;;;;;;;;;;;;;;3.84;69.40;100912.31;5051612;28;19920;-61
2021/12/21 02:32:23;;;;;;;;;;;;;;;3.84;69.65;100911.44;5051681;28;20409;-63
2021/12/21 02:34:50;;;;;;;;;;;;;;;3.83;69.26;100907.09;5051844;28;19955;-61
2021/12/21 02:37:16;;;;;;;;;;;;;;;3.81;69.25;100907.13;5051877;28;20345;-62
2021/12/21 02:39:43;;;;;;;;;;;;;;;3.82;69.14;100905.38;5051557;28;19963;-62
2021/12/21 02:42:09;;;;;;;;;;;;;;;3.81;69.62;100911.47;5052003;28;19967;-62
2021/12/21 02:44:38;;;;;;;;;;;;;;;3.81;69.39;100903.66;5051640;28;19920;-62
2021/12/21 02:47:04;;;;;;;;;;;;;;;3.81;69.67;100898.47;5051518;28;19931;-64
2021/12/21 02:49:31;;;;;;;;;;;;;;;3.81;69.57;100901.06;5051026;28;19924;-61
2021/12/21 02:51:57;;;;;;;;;;;;;;;3.82;69.79;100902.78;5051780;28;19924;-61
2021/12/21 02:54:24;;;;;;;;;;;;;;;3.81;69.36;100896.69;5051581;28;19925;-62
2021/12/21 02:56:50;;;;;;;;;;;;;;;3.81;69.40;100891.50;5051833;28;19920;-63
2021/12/21 02:59:18;;;;;;;;;;;;;;;3.80;69.24;100897.59;5050996;28;19920;-62
2021/12/21 03:01:45;;;;;;;;;;;;;;;3.80;69.74;100894.09;5051179;28;19925;-62
2021/12/21 03:04:12;;;;;;;;;;;;;;;3.78;69.41;100897.59;5051284;28;19929;-61
2021/12/21 03:12:09;;;;;;;;;;;;;;;3.74;69.39;100887.25;5050995;28;20133;-62
2021/12/21 03:14:35;;;;;;;;;;;;;;;3.73;69.61;100886.38;5050803;28;19928;-63
2021/12/21 03:17:03;;;;;;;;;;;;;;;3.73;69.71;100885.50;5051059;28;19935;-61
2021/12/21 03:19:30;;;;;;;;;;;;;;;3.73;69.68;100885.50;5050666;28;19966;-62
2021/12/21 03:21:57;;;;;;;;;;;;;;;3.74;69.55;100884.63;5050959;28;20556;-62
2021/12/21 03:24:23;;;;;;;;;;;;;;;3.74;69.58;100885.47;5051236;28;19925;-63
2021/12/21 03:26:50;;;;;;;;;;;;;;;3.75;69.72;100886.34;5049604;28;20368;-62
2021/12/21 03:29:17;;;;;;;;;;;;;;;3.77;69.70;100884.59;5050877;28;19994;-62
2021/12/21 03:31:43;;;;;;;;;;;;;;;3.77;70.01;100887.19;5050868;28;20412;-62
2021/12/21 03:34:10;;;;;;;;;;;;;;;3.77;69.99;100879.38;5050908;28;20265;-62
2021/12/21 03:36:38;;;;;;;;;;;;;;;3.79;69.63;100888.06;5050707;28;20351;-62
2021/12/21 03:39:07;;;;;;;;;;;;;;;3.77;69.70;100882.84;5049591;28;20609;-61
2021/12/21 03:41:36;;;;;;;;;;;;;;;3.75;69.69;100876.81;5050695;28;19925;-61
2021/12/21 03:44:03;;;;;;;;;;;;;;;3.74;69.39;100879.44;5050798;28;19925;-61
2021/12/21 03:46:32;;;;;;;;;;;;;;;3.73;69.49;100875.94;5050758;28;20373;-61
2021/12/21 03:49:04;;;;;;;;;;;;;;;3.71;69.46;100874.25;5050773;28;19921;-63
2021/12/21 03:51:31;;;;;;;;;;;;;;;3.69;69.42;100866.44;5049209;28;19928;-62
2021/12/21 03:53:58;;;;;;;;;;;;;;;3.67;69.21;100878.63;5050593;28;19978;-62
2021/12/21 03:56:39;;;;;;;;;;;;;;;3.66;69.75;100876.88;5050598;28;19974;-62
2021/12/21 03:59:06;;;;;;;;;;;;;;;3.64;69.56;100873.44;5050723;28;19924;-62
2021/12/21 04:01:33;;;;;;;;;;;;;;;3.64;69.59;100871.72;5050416;28;19925;-61
2021/12/21 04:04:00;;;;;;;;;;;;;;;3.64;69.59;100876.06;5050360;28;19921;-63
2021/12/21 04:06:26;;;;;;;;;;;;;;;3.63;69.98;100875.19;5050304;28;19924;-61
2021/12/21 04:08:53;;;;;;;;;;;;;;;3.64;69.62;100871.72;5050796;28;19991;-61
2021/12/21 04:11:19;;;;;;;;;;;;;;;3.63;70.13;100874.34;5050234;28;19920;-61
2021/12/21 04:13:46;;;;;;;;;;;;;;;3.62;69.91;100875.19;5050370;28;20381;-63
2021/12/21 04:16:12;;;;;;;;;;;;;;;3.61;70.01;100879.56;5050442;28;19959;-62
2021/12/21 04:18:40;;;;;;;;;;;;;;;3.61;69.94;100876.06;5050398;28;19951;-62
2021/12/21 04:21:09;;;;;;;;;;;;;;;3.62;69.89;100875.19;5048753;28;19924;-63
2021/12/21 04:23:35;;;;;;;;;;;;;;;3.62;70.09;100877.78;5049282;28;19925;-62
2021/12/21 04:26:02;;;;;;;;;;;;;;;3.63;69.90;100874.34;5053232;28;19974;-62
2021/12/21 04:28:29;;;;;;;;;;;;;;;3.63;69.92;100874.34;5054478;28;19974;-61
2021/12/21 04:30:56;;;;;;;;;;;;;;;3.63;70.24;100879.53;5054152;28;19963;-62
2021/12/21 04:33:22;;;;;;;;;;;;;;;3.64;70.16;100878.66;5052704;28;19925;-61
2021/12/21 04:35:49;;;;;;;;;;;;;;;3.64;70.22;100878.66;5053933;28;19925;-63
2021/12/21 04:38:21;;;;;;;;;;;;;;;3.64;69.82;100873.44;5052977;28;20011;-61
2021/12/21 04:40:51;;;;;;;;;;;;;;;3.64;69.88;100871.72;5052538;28;19921;-62
2021/12/21 04:43:17;;;;;;;;;;;;;;;3.64;69.72;100870.84;5053024;28;19920;-61
2021/12/21 04:45:44;;;;;;;;;;;;;;;3.63;69.74;100871.72;5053666;28;19932;-62
2021/12/21 04:48:11;;;;;;;;;;;;;;;3.63;69.57;100875.19;5052417;28;19936;-62
2021/12/21 04:50:37;;;;;;;;;;;;;;;3.61;69.85;100870.88;5053665;28;19974;-61
2021/12/21 04:53:04;;;;;;;;;;;;;;;3.60;70.08;100869.16;5053917;28;19974;-63
2021/12/21 04:55:31;;;;;;;;;;;;;;;3.59;70.05;100864.81;5052576;28;19928;-62
2021/12/21 04:57:57;;;;;;;;;;;;;;;3.58;69.86;100865.69;5053832;28;19962;-62
2021/12/21 05:00:24;;;;;;;;;;;;;;;3.56;69.87;100870.06;5053299;28;19921;-62
2021/12/21 05:02:50;;;;;;;;;;;;;;;3.56;69.83;100864.84;5053407;28;19924;-62
2021/12/21 05:05:17;;;;;;;;;;;;;;;3.54;69.79;100864.00;5053370;28;20006;-61
2021/12/21 05:07:48;;;;;;;;;;;;;;;3.51;69.74;100863.16;5053571;28;20369;-62
2021/12/21 05:10:14;;;;;;;;;;;;;;;3.50;69.78;100866.63;5053127;28;19924;-62
2021/12/21 05:12:41;;;;;;;;;;;;;;;3.48;69.48;100860.56;5053341;28;19939;-61
2021/12/21 05:15:07;;;;;;;;;;;;;;;3.45;69.43;100862.34;5053222;28;19928;-63
2021/12/21 05:17:34;;;;;;;;;;;;;;;3.43;69.39;100862.34;5053166;28;19921;-62
2021/12/21 05:20:01;;;;;;;;;;;;;;;3.39;69.59;100866.75;5053120;28;19925;-63
2021/12/21 05:22:27;;;;;;;;;;;;;;;3.37;69.52;100860.66;5053379;28;19924;-64
2021/12/21 05:24:54;;;;;;;;;;;;;;;3.36;69.69;100863.28;5053060;28;19928;-62
2021/12/21 05:27:21;;;;;;;;;;;;;;;3.34;69.76;100865.06;5053355;28;19920;-61
2021/12/21 05:29:47;;;;;;;;;;;;;;;3.32;69.38;100864.22;5051627;28;19920;-61
2021/12/21 05:32:14;;;;;;;;;;;;;;;3.33;69.81;100860.72;5053094;28;19932;-61
2021/12/21 05:34:40;;;;;;;;;;;;;;;3.32;69.81;100861.63;5052997;28;20007;-61
2021/12/21 05:37:07;;;;;;;;;;;;;;;3.29;69.72;100846.84;5051724;28;19925;-61
2021/12/21 05:39:50;;;;;;;;;;;;;;;3.30;69.93;100860.75;5052874;28;19947;-64
2021/12/21 05:42:16;;;;;;;;;;;;;;;3.28;69.88;100860.75;5052595;28;20666;-62
2021/12/21 05:44:43;;;;;;;;;;;;;;;3.26;69.94;100860.75;5052831;28;20379;-61
2021/12/21 05:47:09;;;;;;;;;;;;;;;3.26;69.65;100858.16;5052614;28;19932;-62
2021/12/21 05:49:36;;;;;;;;;;;;;;;3.26;70.24;100860.75;5051072;28;19924;-61
2021/12/21 05:52:03;;;;;;;;;;;;;;;3.29;70.21;100869.44;5052609;28;19925;-61
2021/12/21 05:54:29;;;;;;;;;;;;;;;3.28;70.05;100870.31;5052646;28;19924;-61
2021/12/21 05:56:58;;;;;;;;;;;;;;;3.28;69.90;100870.31;5052483;28;19924;-61
2021/12/21 05:59:25;;;;;;;;;;;;;;;3.28;70.04;100865.13;5052292;28;19925;-63
2021/12/21 06:01:51;;;;;;;;;;;;;;;3.28;70.23;100870.31;5052498;28;19921;-61
2021/12/21 06:04:18;;;;;;;;;;;;;;;3.29;70.24;100874.63;5052544;28;19947;-62
2021/12/21 06:06:44;;;;;;;;;;;;;;;3.29;70.29;100867.69;5050889;28;19946;-63
2021/12/21 06:09:12;;;;;;;;;;;;;;;3.30;69.79;100863.34;5051975;28;19924;-63
2021/12/21 06:11:47;;;;;;;;;;;;;;;3.29;70.04;100861.63;5050884;28;19947;-62
2021/12/21 06:14:49;;;;;;;;;;;;;;;3.29;70.35;100862.47;5052197;28;19924;-62
2021/12/21 06:25:25;;;;;;;;;;;;;;;3.26;69.65;100859.91;5052038;28;19928;-61
2021/12/21 06:27:51;;;;;;;;;;;;;;;3.22;70.03;100861.66;5051814;28;19932;-61
2021/12/21 06:30:18;;;;;;;;;;;;;;;3.21;69.84;100859.09;5051439;28;19927;-61
2021/12/21 06:32:45;;;;;;;;;;;;;;;3.19;70.17;100859.13;5051649;28;19924;-62
2021/12/21 06:35:12;;;;;;;;;;;;;;;3.19;70.47;100860.84;5051560;28;20379;-62
2021/12/21 06:37:38;;;;;;;;;;;;;;;3.20;70.64;100863.44;5051686;28;19920;-62
2021/12/21 06:40:05;;;;;;;;;;;;;;;3.21;70.69;100867.75;5051576;28;19932;-62
2021/12/21 06:42:32;;;;;;;;;;;;;;;3.23;70.66;100873.81;5051616;28;20341;-62
2021/12/21 06:45:00;;;;;;;;;;;;;;;3.24;70.59;100872.94;5051283;28;20512;-62
2021/12/21 06:52:58;;;;;;;;;;;;;;;3.22;70.69;100858.22;5051326;28;19925;-62
2021/12/21 06:55:24;;;;;;;;;;;;;;;3.22;70.51;100866.03;5051347;28;19924;-63
2021/12/21 06:57:50;;;;;;;;;;;;;;;3.23;70.79;100872.94;5051258;28;20273;-61
2021/12/21 07:00:17;;;;;;;;;;;;;;;3.24;71.02;100872.94;5050824;28;20266;-61
2021/12/21 07:02:44;;;;;;;;;;;;;;;3.26;70.88;100868.56;5051463;28;19925;-62
2021/12/21 07:05:10;;;;;;;;;;;;;;;3.29;71.02;100874.63;5051207;28;19920;-61
2021/12/21 07:07:37;;;;;;;;;;;;;;;3.29;70.66;100872.88;5051053;28;20372;-61
2021/12/21 07:10:07;;;;;;;;;;;;;;;3.30;70.79;100869.44;5051353;28;19978;-63
2021/12/21 07:18:03;;;;;;;;;;;;;;;3.32;70.68;100877.22;5051085;28;20402;-63
2021/12/21 07:18:26;;;;;;;;;;;;;;;3.32;70.53;100872.88;5050968;28;19925;-62
2021/12/21 07:20:52;;;;;;;;;;;;;;;3.31;70.42;100876.34;5051116;28;19995;-64
2021/12/21 07:23:19;;;;;;;;;;;;;;;3.31;70.32;100875.47;5049941;28;19967;-62
2021/12/21 07:25:47;;;;;;;;;;;;;;;3.30;70.15;100882.44;5050788;28;19924;-61
2021/12/21 07:28:14;;;;;;;;;;;;;;;3.28;70.12;100880.72;5050962;28;19963;-62
2021/12/21 07:30:40;;;;;;;;;;;;;;;3.26;69.83;100883.34;5050924;28;20365;-65
2021/12/21 07:33:07;;;;;;;;;;;;;;;3.24;69.62;100880.75;5050697;28;20282;-62
2021/12/21 07:35:34;;;;;;;;;;;;;;;3.22;69.96;100873.84;5049750;28;19925;-61
2021/12/21 07:38:00;;;;;;;;;;;;;;;3.20;70.12;100876.44;5050682;28;19925;-61
2021/12/21 07:40:27;;;;;;;;;;;;;;;3.18;70.39;100872.97;5050558;28;19925;-64
2021/12/21 07:42:53;;;;;;;;;;;;;;;3.17;69.79;100876.47;5050470;28;19921;-62
2021/12/21 07:45:20;;;;;;;;;;;;;;;3.18;70.30;100885.13;5050373;28;19928;-63
2021/12/21 07:47:46;;;;;;;;;;;;;;;3.17;70.06;100881.66;5050546;28;19971;-61
2021/12/21 07:50:13;;;;;;;;;;;;;;;3.17;70.57;100889.47;5050277;28;19921;-64
2021/12/21 07:52:40;;;;;;;;;;;;;;;3.17;70.17;100889.47;5050625;28;20355;-62
2021/12/21 07:55:06;;;;;;;;;;;;;;;3.17;70.51;100896.44;5050597;28;19924;-61
2021/12/21 07:57:33;;;;;;;;;;;;;;;3.16;70.43;100887.75;5050393;28;19924;-63
2021/12/21 08:00:03;;;;;;;;;;;;;;;3.16;70.45;100889.47;5051171;28;19924;-61
2021/12/21 08:02:29;;;;;;;;;;;;;;;3.16;70.09;100892.94;5053486;28;19921;-63
2021/12/21 08:04:56;;;;;;;;;;;;;;;3.16;70.02;100897.28;5054759;28;19943;-61
2021/12/21 08:07:29;;;;;;;;;;;;;;;3.17;70.30;100901.63;5053126;28;19924;-62
2021/12/21 08:09:55;;;;;;;;;;;;;;;3.15;70.14;100899.03;5054145;28;19925;-64
2021/12/21 08:12:22;;;;;;;;;;;;;;;3.15;70.13;100898.16;5054397;28;20429;-62
2021/12/21 08:14:50;;;;;;;;;;;;;;;3.13;69.81;100901.66;5054288;28;20304;-61
2021/12/21 08:17:17;;;;;;;;;;;;;;;3.11;70.03;100899.94;5053076;28;19927;-62
2021/12/21 08:19:44;;;;;;;;;;;;;;;3.09;69.96;100893.88;5054236;28;20023;-64
2021/12/21 08:22:12;;;;;;;;;;;;;;;3.07;69.94;100891.28;5052993;28;20269;-63
2021/12/21 08:24:43;;;;;;;;;;;;;;;3.06;70.13;100896.50;5054233;28;20381;-62
2021/12/21 08:27:09;;;;;;;;;;;;;;;3.05;69.81;100897.38;5052700;28;19925;-61
2021/12/21 08:29:36;;;;;;;;;;;;;;;3.05;70.23;100885.22;5053894;28;19921;-64
2021/12/21 08:32:02;;;;;;;;;;;;;;;3.06;70.36;100888.72;5053958;28;19929;-63
2021/12/21 08:34:29;;;;;;;;;;;;;;;3.08;70.59;100884.34;5053953;28;19929;-61
2021/12/21 08:36:55;;;;;;;;;;;;;;;3.08;70.12;100890.41;5054011;28;20422;-61
2021/12/21 08:39:24;;;;;;;;;;;;;;;3.10;70.63;100895.63;5053548;28;20339;-63
2021/12/21 08:41:56;;;;;;;;;;;;;;;3.12;70.53;100894.72;5053866;28;19921;-63
2021/12/21 08:44:24;;;;;;;;;;;;;;;3.13;70.72;100895.56;5053907;28;19978;-61
2021/12/21 08:46:50;;;;;;;;;;;;;;;3.15;70.83;100882.56;5053682;28;19924;-62
2021/12/21 08:49:17;;;;;;;;;;;;;;;3.16;70.54;100892.94;5053668;28;20273;-62
2021/12/21 08:51:43;;;;;;;;;;;;;;;3.17;70.61;100889.47;5053835;28;20482;-62
2021/12/21 08:54:11;;;;;;;;;;;;;;;3.18;70.48;100885.97;5053733;28;19925;-61
2021/12/21 08:56:37;;;;;;;;;;;;;;;3.20;70.40;100894.66;5053810;28;19924;-63
2021/12/21 08:59:04;;;;;;;;;;;;;;;3.21;70.88;100898.97;5053604;28;19920;-62
2021/12/21 09:01:30;;;;;;;;;;;;;;;3.22;70.84;100902.47;5053657;28;19959;-63
2021/12/21 09:03:57;;;;;;;;;;;;;;;3.24;70.35;100896.34;5053450;28;19921;-62
2021/12/21 09:06:24;;;;;;;;;;;;;;;3.26;70.96;100893.75;5053409;28;20023;-61
2021/12/21 09:08:50;;;;;;;;;;;;;;;3.28;70.38;100898.94;5052407;28;20411;-63
2021/12/21 09:11:17;;;;;;;;;;;;;;;3.30;70.47;100897.19;5052830;28;19925;-62
2021/12/21 09:13:43;;;;;;;;;;;;;;;3.33;70.81;100902.38;5053291;28;19978;-61
2021/12/21 09:16:10;;;;;;;;;;;;;;;3.35;70.46;100909.28;5053417;28;19920;-62
2021/12/21 09:18:36;;;;;;;;;;;;;;;3.38;70.90;100914.47;5053346;28;19928;-61
2021/12/21 09:21:04;;;;;;;;;;;;;;;3.40;70.94;100917.03;5052936;28;19921;-62
2021/12/21 09:23:30;;;;;;;;;;;;;;;3.44;70.88;100920.50;5053436;28;19921;-62
2021/12/21 09:25:57;;;;;;;;;;;;;;;3.47;70.95;100915.25;5053070;28;19924;-62
2021/12/21 09:28:23;;;;;;;;;;;;;;;3.50;71.10;100915.22;5053056;28;20380;-62
2021/12/21 09:30:49;;;;;;;;;;;;;;;3.52;70.77;100911.72;5052837;28;19966;-62
2021/12/21 09:33:16;;;;;;;;;;;;;;;3.54;70.89;100910.88;5053016;28;19925;-61
2021/12/21 09:35:43;;;;;;;;;;;;;;;3.55;70.86;100915.19;5052840;28;19927;-61
2021/12/21 09:38:10;;;;;;;;;;;;;;;3.56;70.62;100922.13;5052802;28;20007;-62
2021/12/21 09:40:39;;;;;;;;;;;;;;;3.56;70.91;100919.53;5051083;28;19971;-62
2021/12/21 09:43:09;;;;;;;;;;;;;;;3.56;70.59;100914.31;5051566;28;19932;-65
2021/12/21 09:45:37;;;;;;;;;;;;;;;3.56;70.68;100917.78;5052856;28;19932;-62
2021/12/21 09:48:04;;;;;;;;;;;;;;;3.58;70.92;100920.34;5052765;28;19925;-62
2021/12/21 09:50:30;;;;;;;;;;;;;;;3.58;71.22;100909.94;5052896;28;19921;-63
2021/12/21 09:52:57;;;;;;;;;;;;;;;3.60;70.91;100911.69;5052744;28;19924;-61
2021/12/21 09:55:24;;;;;;;;;;;;;;;3.63;71.13;100910.78;5052977;28;19955;-62
2021/12/21 09:57:52;;;;;;;;;;;;;;;3.68;71.33;100909.00;5052737;28;19921;-62
2021/12/21 10:00:21;;;;;;;;;;;;;;;3.72;71.11;100909.81;5052266;28;20364;-62
2021/12/21 10:02:48;;;;;;;;;;;;;;;3.76;71.38;100904.56;5052295;28;19928;-62
2021/12/21 10:05:19;;;;;;;;;;;;;;;3.81;71.28;100901.06;5051327;28;19944;-61
2021/12/21 10:07:59;;;;;;;;;;;;;;;3.85;71.52;100897.56;5052443;28;19963;-63
2021/12/21 10:10:26;;;;;;;;;;;;;;;3.88;71.24;100900.97;5050853;28;19974;-63
2021/12/21 10:12:52;;;;;;;;;;;;;;;3.93;71.36;100895.72;5052099;28;19975;-64
2021/12/21 10:15:20;;;;;;;;;;;;;;;3.97;71.36;100902.63;5052056;28;19921;-61
2021/12/21 10:17:50;;;;;;;;;;;;;;;4.00;71.50;100894.75;5052203;28;19951;-61
2021/12/21 10:20:29;;;;;;;;;;;;;;;4.04;71.39;100887.78;5050848;28;19921;-60
2021/12/21 10:22:55;;;;;;;;;;;;;;;4.07;71.47;100887.72;5051511;28;19966;-62
2021/12/21 10:25:23;;;;;;;;;;;;;;;4.12;71.31;100885.94;5051952;28;19928;-62
2021/12/21 10:27:49;;;;;;;;;;;;;;;4.14;71.28;100881.59;5051834;28;19925;-62
2021/12/21 10:30:16;;;;;;;;;;;;;;;4.18;71.36;100882.41;5050554;28;19927;-61
2021/12/21 10:32:53;;;;;;;;;;;;;;;4.20;71.28;100883.25;5051810;28;19931;-63
2021/12/21 10:35:29;;;;;;;;;;;;;;;4.23;71.26;100884.97;5051993;28;19929;-62
2021/12/21 10:37:55;;;;;;;;;;;;;;;4.24;71.41;100884.06;5051795;28;19954;-62
2021/12/21 10:40:26;;;;;;;;;;;;;;;4.26;71.28;100887.53;5051181;28;19974;-61
2021/12/21 10:42:52;;;;;;;;;;;;;;;4.29;71.44;100882.25;5051900;28;19978;-61
2021/12/21 10:45:24;;;;;;;;;;;;;;;4.32;71.42;100879.63;5051757;28;19924;-64
2021/12/21 10:47:51;;;;;;;;;;;;;;;4.35;71.60;100881.31;5050652;28;19921;-61
2021/12/21 10:50:17;;;;;;;;;;;;;;;4.39;71.29;100877.78;5051516;28;19920;-61
2021/12/21 10:52:48;;;;;;;;;;;;;;;4.41;71.48;100881.25;5051290;28;19924;-63
2021/12/21 10:55:15;;;;;;;;;;;;;;;4.44;71.48;100878.59;5050292;28;20011;-62
2021/12/21 10:57:41;;;;;;;;;;;;;;;4.47;71.42;100873.34;5051370;28;19924;-63
2021/12/21 11:00:14;;;;;;;;;;;;;;;4.50;71.53;100865.50;5051136;28;20364;-62
2021/12/21 11:02:41;;;;;;;;;;;;;;;4.54;71.58;100867.19;5050222;28;20361;-61
2021/12/21 11:05:10;;;;;;;;;;;;;;;4.58;71.58;100870.59;5051176;28;19925;-62
2021/12/21 11:07:43;;;;;;;;;;;;;;;4.63;71.67;100862.72;5051403;28;19932;-62
2021/12/21 11:10:25;;;;;;;;;;;;;;;4.68;71.71;100859.13;5050005;28;20422;-61
2021/12/21 11:13:07;;;;;;;;;;;;;;;4.80;72.14;100859.84;5051267;28;19972;-62
2021/12/21 11:15:36;;;;;;;;;;;;;;;4.96;72.35;100863.06;5051132;28;19990;-63
2021/12/21 11:18:07;;;;;;;;;;;;;;;5.22;73.05;100856.56;5050143;28;19921;-63
2021/12/21 11:20:35;;;;;;;;;;;;;;;5.59;74.31;100842.88;5050985;28;19925;-62
2021/12/21 11:23:02;;;;;;;;;;;;;;;6.11;75.11;100849.72;5050912;28;20560;-70
2021/12/21 11:25:29;;;;;;;;;;;;;;;6.74;76.62;100846.63;5049660;28;19928;-62
2021/12/21 11:27:56;;;;;;;;;;;;;;;7.47;77.72;100846.59;5049616;28;19920;-64
2021/12/21 11:30:26;;;;;;;;;;;;;;;8.24;78.90;100853.22;5050515;28;20323;-62
2021/12/21 11:32:53;;;;;;;;;;;;;;;9.07;80.06;100851.56;5050903;28;19925;-62
2021/12/21 11:38:03;;;;;;;;;;;;;;;10.73;80.96;100852.63;5050872;28;19931;-63
2021/12/21 11:40:33;;;;;;;;;;;;;;;11.50;80.65;100845.09;5050534;28;19924;-62
2021/12/21 11:43:00;;;;;;;;;;;;;;;12.23;80.00;100849.78;5050703;28;19921;-62
2021/12/21 11:45:39;;;;;;;;;;;;;;;12.94;79.67;100843.84;5050744;28;20422;-62
2021/12/21 11:48:11;;;;;;;;;;;;;;;13.63;78.59;100833.34;5049484;28;20395;-63
2021/12/21 11:50:39;;;;;;;;;;;;;;;14.27;77.41;100835.25;5050335;28;19932;-62
2021/12/21 11:53:07;;;;;;;;;;;;;;;14.85;76.03;100836.41;5049380;28;20384;-63
2021/12/21 11:55:35;;;;;;;;;;;;;;;15.39;74.95;100830.72;5049331;28;20364;-62
2021/12/21 11:58:15;;;;;;;;;;;;;;;15.88;74.41;100824.19;5050772;28;19973;-62
2021/12/21 12:00:50;;;;;;;;;;;;;;;16.40;73.57;100827.16;5049168;28;19924;-62
2021/12/21 12:03:20;;;;;;;;;;;;;;;16.87;72.60;100822.34;5050539;28;19924;-62
2021/12/21 12:05:51;;;;;;;;;;;;;;;17.30;72.38;100825.75;5049199;28;19927;-62
2021/12/21 12:08:17;;;;;;;;;;;;;;;17.68;71.25;100822.25;5050193;28;19947;-63
2021/12/21 12:10:47;;;;;;;;;;;;;;;18.01;70.23;100821.78;5050167;28;19925;-63
2021/12/21 12:13:16;;;;;;;;;;;;;;;18.32;69.63;100814.28;5050576;28;19929;-62
2021/12/21 12:15:53;;;;;;;;;;;;;;;18.58;69.63;100807.00;5050588;28;19928;-62
2021/12/21 12:18:27;;;;;;;;;;;;;;;18.86;68.82;100804.94;5049318;28;19928;-62
2021/12/21 12:20:56;;;;;;;;;;;;;;;19.11;69.13;100807.59;5050230;28;19948;-62
2021/12/21 12:23:22;;;;;;;;;;;;;;;19.34;69.11;100805.81;5050455;28;19975;-62
2021/12/21 12:25:54;;;;;;;;;;;;;;;19.52;69.04;100797.34;5050463;28;19929;-64
2021/12/21 12:28:26;;;;;;;;;;;;;;;19.65;66.92;100797.22;5050279;28;20006;-63
2021/12/21 12:30:53;;;;;;;;;;;;;;;19.66;64.88;100794.44;5050639;28;19991;-63
2021/12/21 12:33:20;;;;;;;;;;;;;;;19.57;62.90;100788.97;5050602;28;20542;-63
2021/12/21 12:35:46;;;;;;;;;;;;;;;19.34;62.29;100795.16;5050401;28;19974;-63
2021/12/21 12:38:13;;;;;;;;;;;;;;;19.02;62.17;100793.97;5050263;28;19932;-63
2021/12/21 12:40:44;;;;;;;;;;;;;;;18.68;61.85;100790.31;5050001;28;19921;-63
2021/12/21 12:43:12;;;;;;;;;;;;;;;18.29;61.99;100788.69;5050092;28;19925;-64
2021/12/21 12:45:40;;;;;;;;;;;;;;;17.91;62.30;100790.47;5050703;28;19924;-63
2021/12/21 12:48:18;;;;;;;;;;;;;;;17.53;62.00;100788.72;5054064;28;19946;-63
2021/12/21 12:50:46;;;;;;;;;;;;;;;17.18;62.99;100795.50;5053437;28;19921;-63
2021/12/21 12:53:13;;;;;;;;;;;;;;;16.93;63.85;100791.81;5052606;28;19932;-63
2021/12/21 12:55:40;;;;;;;;;;;;;;;16.79;65.13;100793.59;5053579;28;19921;-63
2021/12/21 12:58:28;;;;;;;;;;;;;;;16.70;65.83;100791.56;5054136;28;19929;-64
2021/12/21 13:01:21;;;;;;;;;;;;;;;16.64;65.32;100789.31;5053518;28;19999;-63
2021/12/21 13:03:47;;;;;;;;;;;;;;;16.50;64.47;100791.09;5052446;28;19964;-62
2021/12/21 13:06:19;;;;;;;;;;;;;;;16.31;63.79;100788.78;5053247;28;19920;-63
2021/12/21 13:08:46;;;;;;;;;;;;;;;16.04;63.39;100791.41;5053302;28;19929;-62
2021/12/21 13:11:17;;;;;;;;;;;;;;;15.74;63.41;100787.91;5053246;28;19931;-62
2021/12/21 13:13:45;;;;;;;;;;;;;;;15.44;63.61;100792.31;5053380;28;20446;-62
2021/12/21 13:16:19;;;;;;;;;;;;;;;15.13;63.31;100782.75;5053349;28;19920;-62
2021/12/21 13:18:45;;;;;;;;;;;;;;;14.75;62.66;100781.34;5052280;28;19921;-61
2021/12/21 13:21:29;;;;;;;;;;;;;;;14.38;62.32;100777.22;5053125;28;20343;-62
2021/12/21 13:24:00;;;;;;;;;;;;;;;13.96;62.17;100778.69;5053138;28;19940;-62
2021/12/21 13:26:31;;;;;;;;;;;;;;;13.55;62.26;100773.78;5051777;28;19928;-63
2021/12/21 13:28:59;;;;;;;;;;;;;;;13.22;62.42;100776.34;5051587;28;19947;-62
2021/12/21 13:31:26;;;;;;;;;;;;;;;12.89;62.46;100781.50;5052928;28;19933;-64
2021/12/21 13:33:57;;;;;;;;;;;;;;;12.59;62.53;100778.59;5052965;28;19924;-62
2021/12/21 13:36:37;;;;;;;;;;;;;;;12.29;61.38;100787.91;5053005;28;19929;-63
2021/12/21 13:39:22;;;;;;;;;;;;;;;12.02;62.73;100782.13;5052866;28;20278;-62